Dwale, Kentucky
Current Conditions -  °F | °C
As of 2:55 PM on Monday 24 Nov 2014 (Local Time) from KPBX Reporting Station
Scattered Clouds Scattered Clouds  
Wind Chill: 68°   Ceiling: Unl
Heat Index: 68°   Visibility: 10mi
Dew Point: 40°   Wind: 8mph
Humidity: 35%   Direction: 230°SW
Pressure: 29.64"   Gusts: 23mph
Location:  37.62°N, 82.72°W
Report Text: KPBX 241955Z AUTO 23007G20KT 190V260 10SM SCT075 SCT090 20/04 A2964 RMK AO2 LTG DSNT S T02020042
Loading
Personal Weather Stations






























Interactive Weather Map New forecast layout! Learn more

10-Day Weather Forecast

Advertisements
Track Severe Weather on mobile